Miles City, MT

9:38 PM MDT on August 22, 2014 (GMT -0600)
Jordan | Change Station
CLOSE
Current Station
Airport
Location: Jordan,
Elevation: 2661 ft
Nearby Weather Stations

Elev 2661 ft 47.33 °N, 106.95 °W | Updated 50 minutes ago

Thunderstorm
Thunderstorm
63 °F
Feels Like 63 °F
N
14
Wind Variable Wind from NE
Gusts 23 mph

Today
High -- | Low -- °F
--% Chance of Precip.
Yesterday
High -- | Low -- °F
Precip. -- in
6:10 AM 8:00 PM
Waning Crescent, 5% visible
Pressure 30.06 in
Visibility -9999.0 miles
Clouds
Dew Point 57 °F
Humidity 81%
Rainfall 0.00 in
Snow Depth Not available.
UV Not available.
Pollen 5.40 out of 12
Air Quality Not available.
Flu Activity Not available.
METAR KJDN 230248Z AUTO 05012G20KT 17/14 A3007 RMK AO1 SLP180 T01720139 53005

More Conditions Fewer Conditions

Pressure 30.06 in
Visibility -9999.0 miles
Clouds
Dew Point 57 °F
Humidity 81%
Rainfall 0.00 in
Snow Depth Not available.
UV Not available.
Pollen 5.40 out of 12
Air Quality Not available.
Flu Activity Not available.
METAR KJDN 230248Z AUTO 05012G20KT 17/14 A3007 RMK AO1 SLP180 T01720139 53005

More Conditions Fewer Conditions

10-Day Weather Forecast

Almanac

Astronomy

Aug. 22, 2014 Rise Set
Actual Time 6:10 AM MDT 8:00 PM MDT
Civil Twilight 5:38 AM MDT 8:32 PM MDT
Nautical Twilight 4:59 AM MDT 9:11 PM MDT
Astronomical Twilight 4:16 AM MDT 9:54 PM MDT
Moon 3:31 AM MDT (8/22) 6:13 PM MDT (8/22)
Length of Visible Light 14h 53m
Length of Day
13h 49m
Tomorrow will be 3m 3s shorter.
Waning Crescent, 5% of the Moon is Illuminated
Today
Waning Crescent
Aug 25
New
Sep 2
First Quarter
Sep 8
Full
Sep 15
Last Quarter

Today's Extremes

State Highs State Lows

Community

WunderPhotos

Upload Photos

1,746,352 photos uploaded!

WunderBlogs® & News

Nearby

Snow Depth

Station Depth Elevation
Crystal Lake 1 in 6050 ft
Cole Creek 1 in 7850 ft
Burnt Mountain 0 in 5880 ft
Daisy Peak 0 in 7600 ft
Placer Basin 0 in 8830 ft

Earthquake Activity

City Distance Mag. Time & Date
No recent earthquake activity has been reported nearby.
Minimum magnitude displayed is 2.5.

Coastal Water Temperatures

Place Temperature
No Stations Reporting

Nearby Weather Stations